createdAt,value
2022-12-06T00:01:06.460Z,715.00
2022-12-06T00:06:05.651Z,717.00
2022-12-06T00:11:05.799Z,775.00
2022-12-06T00:16:04.061Z,683.00
2022-12-06T00:21:03.267Z,704.00
2022-12-06T00:26:02.440Z,704.00
2022-12-06T00:31:03.603Z,687.00
2022-12-06T00:36:00.754Z,664.00
2022-12-06T00:41:00.903Z,648.00
2022-12-06T00:45:59.180Z,668.00
2022-12-06T00:51:00.404Z,655.00
2022-12-06T00:55:58.706Z,660.00
2022-12-06T01:00:57.013Z,635.00
2022-12-06T01:05:56.295Z,637.00
2022-12-06T01:10:55.548Z,648.00
2022-12-06T01:15:54.839Z,616.00
2022-12-06T01:20:54.111Z,618.00
2022-12-06T01:25:57.544Z,630.00
2022-12-06T01:30:52.641Z,610.00
2022-12-06T01:35:52.750Z,598.00
2022-12-06T01:40:51.031Z,606.00
2022-12-06T01:45:50.388Z,602.00
2022-12-06T01:50:49.505Z,593.00
2022-12-06T01:55:48.825Z,602.00
2022-12-06T02:00:48.140Z,594.00
2022-12-06T02:05:47.455Z,601.00
2022-12-06T02:10:46.758Z,597.00
2022-12-06T02:15:46.080Z,598.00
2022-12-06T02:20:47.390Z,593.00
2022-12-06T02:25:46.733Z,599.00
2022-12-06T02:30:43.904Z,607.00
2022-12-06T02:35:43.087Z,589.00
2022-12-06T20:08:31.987Z,693.00
2022-12-06T20:13:30.223Z,725.00
2022-12-06T20:18:29.493Z,742.00
2022-12-06T20:23:28.768Z,759.00
2022-12-06T20:28:28.723Z,796.00
2022-12-06T20:33:27.246Z,804.00
2022-12-06T20:38:26.470Z,834.00
2022-12-06T20:43:26.729Z,857.00
2022-12-06T20:48:26.018Z,859.00
2022-12-06T20:53:24.262Z,880.00
2022-12-06T20:58:27.526Z,873.00
2022-12-06T21:03:22.684Z,890.00
2022-12-06T21:08:21.680Z,922.00
2022-12-06T21:13:22.118Z,929.00
2022-12-06T21:18:24.406Z,945.00
2022-12-06T21:23:19.606Z,1003.00
2022-12-06T21:28:18.888Z,954.00
2022-12-06T21:33:18.152Z,957.00
2022-12-06T21:38:17.431Z,894.00
2022-12-06T21:43:16.691Z,944.00
2022-12-06T21:48:15.963Z,946.00
2022-12-06T21:53:17.312Z,978.00
2022-12-06T21:58:14.579Z,959.00
2022-12-06T22:03:19.185Z,977.00
2022-12-06T22:08:13.144Z,979.00
2022-12-06T22:13:13.215Z,986.00
2022-12-06T22:18:12.492Z,989.00
2022-12-06T22:23:10.795Z,977.00
2022-12-06T22:28:10.121Z,987.00
2022-12-06T22:33:10.448Z,976.00
2022-12-06T22:38:08.745Z,1000.00
2022-12-06T22:43:07.999Z,995.00
2022-12-06T22:48:08.258Z,999.00
2022-12-06T22:53:06.501Z,983.00
2022-12-06T22:58:05.737Z,968.00
2022-12-06T23:03:04.974Z,974.00
2022-12-06T23:08:05.252Z,953.00
2022-12-06T23:13:03.522Z,1032.00
2022-12-06T23:18:03.752Z,983.00
2022-12-06T23:23:01.983Z,950.00
2022-12-06T23:28:03.232Z,993.00
2022-12-06T23:33:00.487Z,977.00
2022-12-06T23:38:00.773Z,971.00
2022-12-06T23:43:00.044Z,972.00
2022-12-06T23:47:59.309Z,982.00
2022-12-06T23:52:57.574Z,987.00
2022-12-06T23:57:56.888Z,972.00
